Terminal Aerodrome Forecast
Issued by NWS

Home | Current Version | Previous Version | Text Only | Print | Product List | Glossary On
Versions: 1 2 3 4 5 6 7 8 9 10 11 12 13 14 15 16 17 18 19 20 21 22 23 24 25 26 27 28 29 30 31 32 33 34 35 36 37 38 39 40 41 42 43 44 45 46 47 48 49 50
000
FTUS41 KCTP 131926 AAB
TAFAOO
TAF AMD
KAOO 131926Z 1319/1418 33019G26KT 1 1/2SM -SN BKN027 OVC040
     FM132000 31019G29KT P6SM -SN BKN030 BKN040 OVC060
     FM140100 30012G20KT P6SM BKN100
     FM141000 30007KT P6SM OVC100
     FM141100 29005KT P6SM OVC050=

USA.gov is the U.S. government's official web portal to all federal, state and local government web resources and services.